Time;durP1;ratioP1;P1;durP2;ratioP2;P2;SDS_P1;SDS_P2;PMS_P1;PMS_P2;Temp;Humidity;BMP_temperature;BMP_pressure;BME280_temperature;BME280_humidity;BME280_pressure;Samples;Min_cycle;Max_cycle;Signal;HPM_P1;HPM_P2
2023/04/30 00:01:21;;;;;;;25.70;19.20;;;;;;;10.40;74.37;97003.85;108808;1253;95824;-73
2023/04/30 00:03:47;;;;;;;27.60;18.70;;;;;;;10.41;74.57;97001.55;108791;1254;95606;-73
2023/04/30 00:06:14;;;;;;;24.10;18.70;;;;;;;10.41;74.49;96998.48;108815;1253;95743;-76
2023/04/30 00:08:41;;;;;;;25.20;19.70;;;;;;;10.41;74.59;97001.02;108813;1253;96364;-74
2023/04/30 00:11:08;;;;;;;23.20;17.80;;;;;;;10.41;74.74;97001.94;108445;1253;96037;-76
2023/04/30 00:13:34;;;;;;;26.20;18.50;;;;;;;10.41;74.78;96999.53;108807;1253;96072;-76
2023/04/30 00:16:01;;;;;;;24.50;18.90;;;;;;;10.43;74.82;97002.30;108802;1253;105344;-74
2023/04/30 00:18:28;;;;;;;25.50;19.30;;;;;;;10.43;74.89;97000.13;108787;1254;95940;-74
2023/04/30 00:20:54;;;;;;;24.50;18.80;;;;;;;10.40;74.99;96994.22;108882;1252;95734;-75
2023/04/30 00:23:21;;;;;;;27.20;20.50;;;;;;;10.39;75.09;96993.94;108768;1253;103559;-74
2023/04/30 00:25:48;;;;;;;24.60;19.40;;;;;;;10.38;75.12;96995.33;108832;1252;95638;-73
2023/04/30 00:28:14;;;;;;;24.80;20.10;;;;;;;10.35;75.37;96994.90;108772;1253;95826;-75
2023/04/30 00:30:41;;;;;;;29.10;21.40;;;;;;;10.35;75.39;96992.08;108350;1260;95682;-74
2023/04/30 00:33:08;;;;;;;28.70;21.50;;;;;;;10.36;75.45;96994.61;108444;1253;96317;-74
2023/04/30 00:35:34;;;;;;;30.00;21.00;;;;;;;10.35;75.49;96992.98;108796;1253;101536;-74
2023/04/30 00:38:01;;;;;;;29.90;21.90;;;;;;;10.36;75.62;96996.23;108773;1252;95798;-74
2023/04/30 00:40:28;;;;;;;27.50;20.80;;;;;;;10.36;75.65;96995.60;108762;1254;95787;-73
2023/04/30 00:42:55;;;;;;;26.30;21.00;;;;;;;10.37;75.75;97001.82;108803;1254;95913;-74
2023/04/30 00:45:22;;;;;;;30.90;20.60;;;;;;;10.38;75.71;97003.38;108538;1260;95789;-75
2023/04/30 00:47:49;;;;;;;31.30;22.20;;;;;;;10.40;75.87;97002.52;108848;1254;99978;-73
2023/04/30 00:50:16;;;;;;;26.20;20.20;;;;;;;10.40;75.89;97007.09;108795;1252;95540;-75
2023/04/30 00:52:43;;;;;;;30.40;22.00;;;;;;;10.39;76.00;97008.89;108795;1252;96187;-73
2023/04/30 00:55:13;;;;;;;27.80;21.70;;;;;;;10.38;75.95;97004.19;108792;1252;95919;-74
2023/04/30 00:57:40;;;;;;;28.80;21.00;;;;;;;10.38;75.98;97005.92;108470;1253;101740;-73
2023/04/30 01:00:10;;;;;;;33.80;22.40;;;;;;;10.39;76.11;97003.61;108564;1253;95848;-75
2023/04/30 01:02:37;;;;;;;31.00;22.40;;;;;;;10.40;76.20;97003.31;108361;1253;95642;-74
2023/04/30 01:05:05;;;;;;;33.80;23.50;;;;;;;10.38;76.28;97001.05;108664;1253;95825;-73
2023/04/30 01:07:32;;;;;;;30.80;22.90;;;;;;;10.35;76.40;97001.92;108748;1254;95707;-74
2023/04/30 01:09:59;;;;;;;31.30;23.20;;;;;;;10.33;76.49;97000.43;108827;1252;101406;-73
2023/04/30 01:12:31;;;;;;;29.60;22.00;;;;;;;10.33;76.56;96999.31;108791;1254;96024;-74
2023/04/30 01:15:26;;;;;;;29.70;21.50;;;;;;;10.33;76.58;97000.06;108763;1256;95647;-76
2023/04/30 01:18:03;;;;;;;25.50;20.70;;;;;;;10.33;76.78;97003.42;108760;1253;95975;-75
2023/04/30 01:20:31;;;;;;;28.60;21.30;;;;;;;10.32;76.80;97005.54;108786;1254;103414;-73
2023/04/30 01:23:24;;;;;;;28.00;20.80;;;;;;;10.30;76.84;97006.88;108802;1254;101445;-74
2023/04/30 01:26:19;;;;;;;25.00;20.50;;;;;;;10.31;76.98;97005.84;108098;1261;99975;-75
2023/04/30 01:28:49;;;;;;;24.90;20.60;;;;;;;10.30;77.16;97009.53;108091;1263;95956;-77
2023/04/30 01:31:18;;;;;;;27.20;21.00;;;;;;;10.29;77.19;97009.87;108136;1259;96100;-73
2023/04/30 01:33:45;;;;;;;27.00;21.80;;;;;;;10.27;77.29;97012.63;108174;1259;103506;-73
2023/04/30 01:36:29;;;;;;;28.70;20.60;;;;;;;10.26;77.21;97011.77;108063;1260;96523;-77
2023/04/30 01:39:08;;;;;;;23.30;19.40;;;;;;;10.25;77.48;97015.15;108146;1261;99921;-73
2023/04/30 01:41:47;;;;;;;23.90;18.50;;;;;;;10.23;77.57;97010.85;108098;1261;95905;-74
2023/04/30 01:44:40;;;;;;;18.90;16.70;;;;;;;10.23;77.61;97013.17;108141;1260;96560;-74
2023/04/30 01:47:13;;;;;;;22.70;18.70;;;;;;;10.26;77.71;97019.20;108164;1261;103619;-73
2023/04/30 01:50:17;;;;;;;23.80;19.60;;;;;;;10.30;77.52;97022.57;108180;1260;101059;-73
2023/04/30 01:52:51;;;;;;;25.30;20.50;;;;;;;10.31;77.62;97018.30;107652;1268;99904;-73
2023/04/30 01:55:29;;;;;;;23.80;20.40;;;;;;;10.28;77.70;97015.90;107611;1268;96001;-73
2023/04/30 01:57:59;;;;;;;25.20;20.60;;;;;;;10.28;77.69;97018.30;107683;1268;96150;-77
2023/04/30 02:00:29;;;;;;;24.40;19.90;;;;;;;10.27;77.73;97017.95;107346;1268;103304;-73
2023/04/30 02:02:57;;;;;;;24.20;20.30;;;;;;;10.26;77.89;97023.79;107835;1262;101548;-74
2023/04/30 02:05:24;;;;;;;27.10;20.00;;;;;;;10.25;78.03;97022.91;107939;1266;100014;-74
2023/04/30 02:07:52;;;;;;;23.50;19.10;;;;;;;10.24;78.06;97019.27;108121;1261;95781;-73
2023/04/30 02:10:21;;;;;;;25.70;20.70;;;;;;;10.24;78.17;97023.13;108170;1261;96098;-75
2023/04/30 02:12:48;;;;;;;23.70;19.60;;;;;;;10.24;78.25;97023.63;107724;1261;103622;-73
2023/04/30 02:15:15;;;;;;;24.10;18.50;;;;;;;10.24;78.28;97024.58;108125;1260;95800;-73
2023/04/30 02:17:42;;;;;;;22.10;18.40;;;;;;;10.24;78.30;97025.77;108021;1261;96018;-74
2023/04/30 02:20:09;;;;;;;22.50;18.70;;;;;;;10.25;78.32;97023.31;108094;1265;95774;-74
2023/04/30 02:22:36;;;;;;;21.30;18.00;;;;;;;10.28;78.41;97018.02;108151;1260;95849;-72
2023/04/30 02:25:03;;;;;;;21.60;18.70;;;;;;;10.29;78.26;97018.55;108161;1262;95699;-73
2023/04/30 02:27:32;;;;;;;22.30;18.10;;;;;;;10.30;78.30;97022.23;108226;1254;95897;-72
2023/04/30 02:29:59;;;;;;;22.50;17.90;;;;;;;10.30;78.33;97024.52;108484;1254;95697;-72
2023/04/30 02:32:26;;;;;;;20.70;17.00;;;;;;;10.33;78.28;97025.58;108746;1252;96041;-74
2023/04/30 02:34:53;;;;;;;26.70;18.50;;;;;;;10.36;78.18;97027.98;108841;1254;96048;-74
2023/04/30 02:37:19;;;;;;;19.70;17.60;;;;;;;10.39;78.24;97029.34;108830;1254;95773;-73
2023/04/30 02:39:46;;;;;;;24.20;19.00;;;;;;;10.41;78.27;97027.63;108771;1255;95883;-73
2023/04/30 02:42:13;;;;;;;24.20;18.60;;;;;;;10.41;78.27;97030.24;108834;1254;95709;-74
2023/04/30 02:44:40;;;;;;;22.40;19.10;;;;;;;10.40;78.33;97031.58;108779;1254;103591;-74
2023/04/30 02:47:06;;;;;;;22.20;19.30;;;;;;;10.39;78.46;97031.35;108828;1253;96008;-74
2023/04/30 02:49:33;;;;;;;24.30;20.90;;;;;;;10.38;78.39;97033.92;108780;1254;95646;-74
2023/04/30 02:52:00;;;;;;;27.50;21.80;;;;;;;10.38;78.35;97031.88;108827;1254;95754;-74
2023/04/30 02:54:26;;;;;;;25.40;21.00;;;;;;;10.36;78.38;97030.84;108888;1254;95872;-76
2023/04/30 02:56:53;;;;;;;26.70;22.00;;;;;;;10.34;78.56;97033.67;108799;1254;101393;-76
2023/04/30 02:59:20;;;;;;;24.80;20.60;;;;;;;10.34;78.53;97034.63;108780;1254;95719;-74
2023/04/30 03:01:46;;;;;;;25.60;21.10;;;;;;;10.33;78.66;97032.23;108325;1253;95917;-73
2023/04/30 03:04:13;;;;;;;27.60;21.70;;;;;;;10.33;78.69;97037.08;108791;1256;95717;-72
2023/04/30 03:06:40;;;;;;;25.00;21.30;;;;;;;10.33;78.60;97043.52;108786;1253;95660;-74
2023/04/30 03:09:07;;;;;;;26.30;21.80;;;;;;;10.34;78.66;97043.98;108762;1255;99960;-75
2023/04/30 03:11:36;;;;;;;27.20;22.40;;;;;;;10.36;78.72;97045.66;108408;1254;95660;-74
2023/04/30 03:14:03;;;;;;;26.50;21.90;;;;;;;10.36;78.87;97049.40;108470;1252;96027;-74
2023/04/30 03:16:30;;;;;;;26.50;22.00;;;;;;;10.36;78.74;97049.52;108380;1254;102273;-76
2023/04/30 03:18:57;;;;;;;28.70;22.30;;;;;;;10.36;78.87;97049.89;108408;1253;95650;-73
2023/04/30 03:21:24;;;;;;;26.20;21.60;;;;;;;10.33;78.85;97050.70;108743;1252;95632;-73
2023/04/30 03:23:51;;;;;;;27.60;21.80;;;;;;;10.29;78.96;97049.56;108375;1257;95686;-74
2023/04/30 03:26:17;;;;;;;26.50;22.40;;;;;;;10.26;79.03;97053.90;108886;1252;95682;-74
2023/04/30 03:28:44;;;;;;;26.60;22.40;;;;;;;10.22;79.23;97057.17;108776;1254;101322;-76
2023/04/30 03:31:11;;;;;;;24.90;22.10;;;;;;;10.21;79.15;97063.98;108786;1254;95711;-74
2023/04/30 03:33:37;;;;;;;26.80;19.40;;;;;;;10.23;79.21;97062.67;108650;1253;96122;-76
2023/04/30 03:36:04;;;;;;;27.40;21.10;;;;;;;10.20;79.06;97067.45;108832;1253;95701;-74
2023/04/30 03:38:31;;;;;;;26.60;20.70;;;;;;;10.20;79.07;97070.36;108869;1253;95857;-75
2023/04/30 03:40:58;;;;;;;22.20;18.30;;;;;;;10.21;79.10;97069.73;108779;1254;99751;-75
2023/04/30 03:43:24;;;;;;;22.90;17.60;;;;;;;10.19;78.77;97073.32;108755;1254;96639;-73
2023/04/30 03:45:51;;;;;;;25.40;19.20;;;;;;;10.14;78.86;97073.45;108827;1254;95649;-74
2023/04/30 03:48:18;;;;;;;26.50;18.80;;;;;;;10.12;78.95;97073.70;108828;1253;95818;-73
2023/04/30 03:50:45;;;;;;;24.00;18.40;;;;;;;10.13;79.10;97080.23;108868;1254;95804;-74
2023/04/30 03:53:12;;;;;;;28.20;20.20;;;;;;;10.09;78.99;97077.16;108328;1260;95598;-74
2023/04/30 03:55:38;;;;;;;26.40;18.20;;;;;;;10.02;79.15;97082.02;108710;1253;95950;-76
2023/04/30 03:58:05;;;;;;;23.90;17.40;;;;;;;10.00;79.00;97085.02;108785;1253;95560;-74
2023/04/30 04:00:32;;;;;;;24.50;18.40;;;;;;;10.02;78.93;97088.62;108787;1253;95651;-73
2023/04/30 04:02:58;;;;;;;23.70;17.60;;;;;;;10.02;79.14;97089.09;108824;1253;95650;-73
2023/04/30 04:05:25;;;;;;;26.00;18.30;;;;;;;10.04;79.13;97091.99;108381;1254;96037;-74
2023/04/30 04:07:52;;;;;;;27.50;18.80;;;;;;;10.05;79.09;97092.65;108801;1253;96019;-76
2023/04/30 04:10:18;;;;;;;26.70;18.00;;;;;;;10.07;79.04;97098.13;108800;1253;95777;-73
2023/04/30 04:12:45;;;;;;;31.20;19.70;;;;;;;10.10;79.02;97101.31;108712;1253;95638;-76
2023/04/30 04:15:12;;;;;;;29.20;18.70;;;;;;;10.12;78.95;97101.80;108858;1254;95670;-74
2023/04/30 04:17:38;;;;;;;26.00;18.00;;;;;;;10.12;79.09;97105.74;108810;1254;103190;-74
2023/04/30 04:20:06;;;;;;;28.40;18.70;;;;;;;10.14;79.13;97113.36;108786;1252;96083;-74
2023/04/30 04:22:33;;;;;;;28.10;18.20;;;;;;;10.15;79.09;97111.98;108749;1253;95633;-74
2023/04/30 04:25:00;;;;;;;27.80;18.30;;;;;;;10.13;79.19;97120.25;108335;1254;95741;-74
2023/04/30 04:27:27;;;;;;;28.00;17.70;;;;;;;10.18;79.20;97123.57;108711;1253;95622;-77
2023/04/30 04:29:54;;;;;;;29.10;18.80;;;;;;;10.22;79.17;97123.23;108797;1252;95603;-75
2023/04/30 04:32:22;;;;;;;26.70;18.30;;;;;;;10.24;79.12;97126.71;108809;1253;96068;-74
2023/04/30 04:34:48;;;;;;;23.70;17.60;;;;;;;10.25;79.07;97129.45;108402;1253;95747;-74
2023/04/30 04:37:16;;;;;;;23.80;17.10;;;;;;;10.26;79.12;97131.10;108751;1253;95625;-78
2023/04/30 04:39:43;;;;;;;24.90;17.20;;;;;;;10.26;79.12;97131.39;108771;1253;95846;-76
2023/04/30 04:42:10;;;;;;;25.20;17.20;;;;;;;10.28;79.03;97134.89;108834;1254;96520;-75
2023/04/30 04:44:38;;;;;;;20.80;15.40;;;;;;;10.29;79.05;97137.08;108748;1254;95628;-78
2023/04/30 04:47:04;;;;;;;22.80;15.90;;;;;;;10.28;78.98;97138.86;108759;1252;95902;-74
2023/04/30 04:49:31;;;;;;;21.00;14.20;;;;;;;10.27;78.96;97136.23;108424;1254;95791;-73
2023/04/30 04:51:58;;;;;;;20.20;14.10;;;;;;;10.25;78.90;97137.71;108390;1257;95743;-75
2023/04/30 04:54:25;;;;;;;21.70;15.40;;;;;;;10.23;78.91;97143.85;108775;1254;99875;-76
2023/04/30 04:56:51;;;;;;;19.80;14.90;;;;;;;10.22;79.11;97145.80;108761;1253;96748;-74
2023/04/30 04:59:18;;;;;;;22.10;16.40;;;;;;;10.23;79.09;97152.03;108757;1254;95973;-74
2023/04/30 05:01:45;;;;;;;21.50;15.50;;;;;;;10.24;79.12;97155.52;108847;1254;95736;-74
2023/04/30 05:04:12;;;;;;;21.70;15.00;;;;;;;10.25;79.21;97158.79;108809;1254;95697;-77
2023/04/30 05:06:40;;;;;;;20.80;15.50;;;;;;;10.26;79.27;97157.16;108806;1253;95570;-76
2023/04/30 05:09:08;;;;;;;22.00;16.30;;;;;;;10.26;79.18;97160.36;108355;1254;95951;-73
2023/04/30 05:11:35;;;;;;;20.60;16.00;;;;;;;10.26;79.25;97158.58;108785;1254;103554;-74
2023/04/30 05:14:02;;;;;;;19.60;15.40;;;;;;;10.26;79.17;97161.36;108823;1252;101391;-76
2023/04/30 05:16:29;;;;;;;20.80;15.60;;;;;;;10.24;79.15;97165.30;108765;1253;96121;-73
2023/04/30 05:18:56;;;;;;;20.90;14.80;;;;;;;10.23;79.11;97166.96;108789;1253;95601;-74
2023/04/30 05:21:24;;;;;;;20.60;16.30;;;;;;;10.18;79.07;97168.79;108838;1254;95934;-73
2023/04/30 05:23:51;;;;;;;22.30;15.90;;;;;;;10.15;79.18;97174.14;108843;1253;95690;-74
2023/04/30 05:26:18;;;;;;;24.00;16.20;;;;;;;10.14;79.39;97180.71;108801;1254;95854;-74
2023/04/30 05:28:45;;;;;;;21.70;16.00;;;;;;;10.16;79.42;97181.61;108754;1252;95673;-73
2023/04/30 05:31:11;;;;;;;19.10;15.10;;;;;;;10.16;79.37;97185.83;108823;1252;95609;-74
2023/04/30 05:33:39;;;;;;;20.00;15.80;;;;;;;10.15;79.44;97188.70;108782;1252;103287;-74
2023/04/30 05:36:06;;;;;;;20.90;15.90;;;;;;;10.14;79.61;97190.50;108788;1254;101578;-78
2023/04/30 05:38:33;;;;;;;22.50;16.00;;;;;;;10.13;79.60;97194.34;108784;1253;95649;-72
2023/04/30 05:41:00;;;;;;;19.70;14.60;;;;;;;10.14;79.68;97193.41;108766;1254;95692;-74
2023/04/30 05:43:26;;;;;;;16.90;13.40;;;;;;;10.12;79.79;97197.69;108771;1253;95673;-74
2023/04/30 05:45:53;;;;;;;17.10;14.30;;;;;;;10.09;79.71;97203.02;108810;1254;95669;-74
2023/04/30 05:48:20;;;;;;;16.70;14.10;;;;;;;10.07;79.76;97205.13;108872;1253;95673;-74
2023/04/30 05:50:47;;;;;;;18.30;14.30;;;;;;;10.07;79.93;97206.88;108757;1253;95779;-75
2023/04/30 05:53:13;;;;;;;21.40;15.40;;;;;;;10.11;80.01;97211.38;108800;1253;95679;-74
2023/04/30 05:55:40;;;;;;;21.10;15.00;;;;;;;10.11;80.04;97212.26;108772;1253;95957;-74
2023/04/30 05:58:07;;;;;;;21.70;16.40;;;;;;;10.13;80.08;97213.13;108741;1253;96040;-75
2023/04/30 06:00:34;;;;;;;19.20;14.80;;;;;;;10.15;79.92;97219.95;108799;1253;95801;-74
2023/04/30 06:03:01;;;;;;;16.90;13.70;;;;;;;10.15;79.91;97224.64;108390;1253;96278;-75
2023/04/30 06:05:28;;;;;;;18.30;14.70;;;;;;;10.14;79.91;97226.49;108692;1252;97150;-73
2023/04/30 06:07:55;;;;;;;20.10;14.80;;;;;;;10.13;79.95;97232.84;108792;1252;95683;-77
2023/04/30 06:10:21;;;;;;;20.70;15.00;;;;;;;10.13;79.85;97240.64;108787;1252;95605;-73
2023/04/30 06:12:48;;;;;;;13.00;11.50;;;;;;;10.07;79.71;97243.05;108419;1252;95690;-73
2023/04/30 06:15:15;;;;;;;15.80;12.30;;;;;;;9.92;79.41;97245.00;108830;1253;103696;-75
2023/04/30 06:17:41;;;;;;;12.20;10.90;;;;;;;9.76;79.66;97245.15;108830;1253;95932;-74
2023/04/30 06:20:08;;;;;;;12.30;11.10;;;;;;;9.68;79.64;97246.98;108759;1253;95805;-73
2023/04/30 06:22:35;;;;;;;12.60;11.30;;;;;;;9.63;79.58;97254.59;108728;1253;95651;-73
2023/04/30 06:25:02;;;;;;;10.30;9.30;;;;;;;9.61;79.67;97261.42;108829;1253;95615;-77
2023/04/30 06:27:31;;;;;;;9.90;8.90;;;;;;;9.53;79.52;97261.39;108764;1253;101256;-77
2023/04/30 06:29:59;;;;;;;9.20;8.30;;;;;;;9.41;79.67;97264.88;108365;1254;99488;-74
2023/04/30 06:32:26;;;;;;;10.80;9.60;;;;;;;9.29;79.84;97268.48;108667;1253;97063;-74
2023/04/30 06:34:54;;;;;;;10.60;9.20;;;;;;;9.20;79.82;97270.59;108742;1253;95867;-76
2023/04/30 06:37:20;;;;;;;13.00;10.60;;;;;;;9.12;79.93;97279.94;108598;1254;95643;-74
2023/04/30 06:39:48;;;;;;;13.70;11.40;;;;;;;9.09;80.09;97287.34;108396;1254;95711;-74
2023/04/30 06:42:15;;;;;;;15.40;13.30;;;;;;;9.09;80.10;97286.30;108747;1253;96101;-74
2023/04/30 06:44:42;;;;;;;16.20;14.70;;;;;;;9.07;80.16;97292.52;108761;1252;95830;-76
2023/04/30 06:47:08;;;;;;;15.70;14.10;;;;;;;9.03;79.99;97296.38;108809;1253;95667;-75
2023/04/30 06:49:35;;;;;;;17.50;14.70;;;;;;;8.98;79.95;97301.66;108435;1252;96104;-73
2023/04/30 06:52:02;;;;;;;15.70;14.00;;;;;;;8.92;79.71;97307.16;108750;1252;99950;-74
2023/04/30 06:54:29;;;;;;;15.70;13.10;;;;;;;8.85;79.67;97308.21;108757;1252;95599;-75
2023/04/30 06:56:55;;;;;;;15.60;13.80;;;;;;;8.76;79.70;97310.46;108758;1253;95635;-73
2023/04/30 06:59:22;;;;;;;16.10;13.60;;;;;;;8.71;80.07;97316.08;108774;1252;95861;-74
2023/04/30 07:01:49;;;;;;;17.70;15.50;;;;;;;8.71;80.05;97319.17;108797;1253;96425;-74
2023/04/30 07:04:15;;;;;;;19.70;16.40;;;;;;;8.64;80.04;97324.45;108780;1252;95528;-74
2023/04/30 07:06:42;;;;;;;18.10;14.70;;;;;;;8.53;80.05;97324.90;108399;1254;95793;-74
2023/04/30 07:09:10;;;;;;;18.10;15.20;;;;;;;8.43;80.04;97334.05;108751;1253;95584;-74
2023/04/30 07:11:36;;;;;;;18.20;14.90;;;;;;;8.39;80.04;97338.36;108791;1253;95674;-73
2023/04/30 07:14:03;;;;;;;19.10;14.90;;;;;;;8.35;79.75;97343.43;108712;1252;95964;-74
2023/04/30 07:16:31;;;;;;;21.50;15.90;;;;;;;8.35;79.67;97345.83;108852;1253;95598;-74
2023/04/30 07:18:58;;;;;;;20.40;15.60;;;;;;;8.32;79.72;97349.42;108751;1252;95710;-73
2023/04/30 07:21:26;;;;;;;19.30;15.70;;;;;;;8.25;79.70;97351.08;108814;1253;95629;-74
2023/04/30 07:23:53;;;;;;;21.70;17.00;;;;;;;8.22;79.53;97356.70;108790;1252;95823;-74
2023/04/30 07:26:20;;;;;;;20.80;17.10;;;;;;;8.22;79.35;97364.83;108696;1253;95871;-73
2023/04/30 07:28:47;;;;;;;22.50;18.10;;;;;;;8.20;79.11;97365.45;108813;1253;96472;-74
2023/04/30 07:31:14;;;;;;;25.60;19.70;;;;;;;8.11;78.97;97367.30;108392;1254;103121;-76
2023/04/30 07:33:41;;;;;;;23.60;19.00;;;;;;;8.08;79.09;97368.04;108758;1253;95966;-74
2023/04/30 07:36:07;;;;;;;24.20;19.00;;;;;;;8.10;79.19;97368.40;108796;1253;96549;-75
2023/04/30 07:38:34;;;;;;;26.30;19.50;;;;;;;8.11;79.20;97369.40;108749;1253;95606;-74
2023/04/30 07:41:01;;;;;;;30.40;20.70;;;;;;;8.15;79.10;97376.05;108873;1253;95646;-73
2023/04/30 07:43:28;;;;;;;27.10;20.80;;;;;;;8.20;79.02;97376.05;108813;1253;101477;-72
2023/04/30 07:45:55;;;;;;;31.00;21.50;;;;;;;8.22;79.00;97380.03;108737;1252;95717;-73
2023/04/30 07:48:22;;;;;;;25.80;21.70;;;;;;;8.27;79.01;97383.75;108733;1253;96098;-74
2023/04/30 07:50:48;;;;;;;23.90;20.00;;;;;;;8.32;78.91;97385.71;108441;1252;96054;-73
2023/04/30 07:53:15;;;;;;;27.30;20.00;;;;;;;8.32;78.87;97389.24;108856;1253;95689;-73
2023/04/30 07:55:42;;;;;;;24.50;20.20;;;;;;;8.31;78.63;97387.18;108330;1253;98807;-73
2023/04/30 07:58:08;;;;;;;28.00;20.90;;;;;;;8.30;78.66;97395.52;108771;1253;95610;-74
2023/04/30 08:00:35;;;;;;;29.60;21.80;;;;;;;8.28;78.63;97394.71;108751;1253;95637;-72
2023/04/30 08:03:02;;;;;;;29.50;20.30;;;;;;;8.27;78.61;97399.27;108741;1253;95709;-77
2023/04/30 08:05:29;;;;;;;22.60;18.90;;;;;;;8.28;78.66;97400.95;108810;1253;96495;-77
2023/04/30 08:07:56;;;;;;;28.10;21.40;;;;;;;8.25;78.75;97400.03;108694;1252;95942;-78
2023/04/30 08:10:22;;;;;;;23.80;19.40;;;;;;;8.23;78.90;97403.90;108753;1254;95696;-74
2023/04/30 08:12:49;;;;;;;26.50;20.00;;;;;;;8.19;79.07;97404.33;108748;1253;95594;-73
2023/04/30 08:15:16;;;;;;;29.60;21.90;;;;;;;8.19;79.16;97405.16;108402;1253;95774;-75
2023/04/30 08:17:43;;;;;;;24.40;19.70;;;;;;;8.22;79.18;97417.46;108759;1252;95635;-73
2023/04/30 08:20:10;;;;;;;29.00;21.70;;;;;;;8.26;79.08;97419.81;108380;1253;96071;-74
2023/04/30 08:22:37;;;;;;;33.30;22.30;;;;;;;8.31;79.16;97423.95;108447;1253;95676;-74
2023/04/30 08:25:04;;;;;;;25.30;21.30;;;;;;;8.40;79.38;97431.27;108365;1253;95632;-73
2023/04/30 08:27:31;;;;;;;26.70;19.40;;;;;;;8.46;79.35;97436.48;108220;1252;95785;-74
2023/04/30 08:29:58;;;;;;;23.00;19.80;;;;;;;8.53;79.09;97439.68;108626;1253;95813;-74
2023/04/30 08:32:25;;;;;;;24.80;19.90;;;;;;;8.64;79.10;97436.15;108702;1253;95668;-73
2023/04/30 08:34:54;;;;;;;24.80;19.40;;;;;;;8.75;78.93;97437.55;108466;1253;96001;-73
2023/04/30 08:37:21;;;;;;;23.60;19.80;;;;;;;8.83;78.81;97436.53;108274;1257;100111;-73
2023/04/30 08:39:51;;;;;;;24.10;19.20;;;;;;;8.88;78.87;97441.45;108309;1256;95726;-74
2023/04/30 08:42:21;;;;;;;22.40;19.10;;;;;;;8.96;78.75;97446.21;108305;1257;96043;-74
2023/04/30 08:44:52;;;;;;;24.90;18.40;;;;;;;9.04;78.34;97446.13;108332;1256;103762;-74
2023/04/30 08:47:23;;;;;;;21.00;18.50;;;;;;;9.12;78.20;97450.91;108272;1257;101188;-74
2023/04/30 08:49:50;;;;;;;22.10;18.80;;;;;;;9.17;78.07;97450.52;108289;1256;98869;-73
2023/04/30 08:52:18;;;;;;;23.50;18.50;;;;;;;9.21;77.86;97454.48;108241;1257;95715;-77
2023/04/30 08:54:49;;;;;;;23.20;19.70;;;;;;;9.26;77.66;97453.80;108327;1256;95727;-74
2023/04/30 08:57:19;;;;;;;24.40;19.50;;;;;;;9.31;77.64;97457.62;108082;1260;102736;-74
2023/04/30 08:59:46;;;;;;;26.20;20.20;;;;;;;9.32;77.70;97461.67;108075;1260;96137;-74
2023/04/30 09:02:13;;;;;;;24.60;19.70;;;;;;;9.34;77.68;97467.73;107951;1260;95784;-74
2023/04/30 09:04:39;;;;;;;23.70;19.70;;;;;;;9.30;77.43;97470.33;107955;1259;95749;-75
2023/04/30 09:07:06;;;;;;;24.30;18.90;;;;;;;9.29;77.44;97471.20;107854;1261;95826;-73
2023/04/30 09:09:38;;;;;;;23.30;18.50;;;;;;;9.31;77.62;97472.16;108330;1257;95887;-73
2023/04/30 09:12:16;;;;;;;21.20;18.50;;;;;;;9.36;77.38;97470.86;108242;1257;99979;-74
2023/04/30 09:14:58;;;;;;;24.60;19.30;;;;;;;9.42;77.06;97471.61;108152;1258;95731;-76
2023/04/30 09:17:26;;;;;;;25.40;19.00;;;;;;;9.49;76.95;97468.29;108375;1259;95846;-74
2023/04/30 09:19:53;;;;;;;28.00;21.00;;;;;;;9.53;76.69;97467.95;108345;1256;95719;-74
2023/04/30 09:22:23;;;;;;;24.30;18.90;;;;;;;9.58;76.58;97468.80;108206;1257;101100;-73
2023/04/30 09:24:52;;;;;;;24.50;18.00;;;;;;;9.63;76.53;97469.04;108323;1256;100002;-74
2023/04/30 09:27:22;;;;;;;19.70;15.90;;;;;;;9.65;76.28;97468.17;108188;1256;194729;-74
2023/04/30 09:29:52;;;;;;;20.70;16.30;;;;;;;9.66;75.96;97463.52;108734;1253;96044;-74
2023/04/30 09:32:19;;;;;;;22.90;15.70;;;;;;;9.72;75.64;97462.75;108418;1253;103509;-73
2023/04/30 09:34:45;;;;;;;20.20;16.10;;;;;;;9.84;75.64;97459.70;108709;1253;95644;-74
2023/04/30 09:37:12;;;;;;;26.40;18.10;;;;;;;9.98;75.79;97460.34;108742;1253;95866;-75
2023/04/30 09:39:54;;;;;;;20.50;17.10;;;;;;;10.10;75.75;97462.29;108712;1252;95623;-74
2023/04/30 09:42:21;;;;;;;21.20;16.80;;;;;;;10.18;75.06;97463.92;108745;1253;96429;-74
2023/04/30 09:44:48;;;;;;;18.50;16.40;;;;;;;10.25;74.92;97463.41;108758;1253;95757;-77
2023/04/30 09:47:19;;;;;;;16.90;14.90;;;;;;;10.33;74.96;97458.84;108803;1252;96089;-74
2023/04/30 09:49:50;;;;;;;20.10;15.20;;;;;;;10.45;74.78;97461.31;108713;1252;99374;-73
2023/04/30 09:52:19;;;;;;;20.00;14.70;;;;;;;10.60;74.69;97455.56;108779;1253;95577;-75
2023/04/30 09:54:46;;;;;;;19.60;15.90;;;;;;;10.72;74.26;97457.46;108774;1252;96147;-73
2023/04/30 09:57:15;;;;;;;21.90;17.20;;;;;;;10.79;74.02;97460.39;108343;1253;103431;-75
2023/04/30 09:59:46;;;;;;;18.90;14.90;;;;;;;10.81;73.86;97457.65;108379;1253;101910;-73
2023/04/30 10:02:15;;;;;;;28.10;18.70;;;;;;;10.76;73.52;97453.67;108755;1253;99873;-73
2023/04/30 10:04:44;;;;;;;20.60;16.50;;;;;;;10.78;74.12;97454.08;108712;1252;95741;-74
2023/04/30 10:07:20;;;;;;;19.90;15.80;;;;;;;10.81;73.48;97447.67;108700;1253;96555;-74
2023/04/30 10:10:07;;;;;;;19.40;16.00;;;;;;;10.82;73.23;97446.52;108741;1253;103256;-74
2023/04/30 10:12:44;;;;;;;19.80;15.50;;;;;;;10.84;73.20;97443.23;108576;1252;101272;-74
2023/04/30 10:15:15;;;;;;;20.60;16.30;;;;;;;10.96;73.00;97441.85;108735;1253;98743;-74
2023/04/30 10:17:47;;;;;;;18.50;15.20;;;;;;;11.12;72.70;97442.13;108390;1252;95595;-75
2023/04/30 10:20:16;;;;;;;18.40;14.20;;;;;;;11.23;72.73;97439.96;108459;1252;96074;-74
2023/04/30 10:22:45;;;;;;;19.90;14.80;;;;;;;11.33;72.69;97435.05;108794;1252;103669;-74
2023/04/30 10:25:12;;;;;;;15.60;14.00;;;;;;;11.41;72.10;97432.23;108758;1253;99953;-73
2023/04/30 10:27:39;;;;;;;18.40;13.50;;;;;;;11.44;71.73;97432.09;108758;1253;97703;-75
2023/04/30 10:30:09;;;;;;;22.10;16.40;;;;;;;11.47;71.53;97428.42;108761;1252;95796;-73
2023/04/30 10:33:00;;;;;;;19.40;15.50;;;;;;;11.50;71.39;97429.67;108613;1255;96062;-73
2023/04/30 10:35:32;;;;;;;27.80;15.30;;;;;;;11.55;71.05;97430.87;108775;1252;103593;-74
2023/04/30 10:38:11;;;;;;;20.40;17.50;;;;;;;11.67;71.06;97426.96;108763;1253;101146;-75
2023/04/30 10:40:37;;;;;;;19.90;15.50;;;;;;;11.85;70.96;97423.23;108693;1252;99950;-76
2023/04/30 10:43:04;;;;;;;19.70;12.80;;;;;;;11.94;70.56;97421.41;108760;1253;95624;-76
2023/04/30 10:45:41;;;;;;;17.40;13.10;;;;;;;11.99;70.09;97422.78;108750;1253;96604;-75
2023/04/30 10:48:08;;;;;;;15.40;12.80;;;;;;;12.00;69.87;97426.98;108614;1253;103084;-73
2023/04/30 10:50:44;;;;;;;18.50;13.40;;;;;;;11.98;69.74;97425.77;108655;1253;95640;-76
2023/04/30 10:53:18;;;;;;;20.70;14.60;;;;;;;11.96;69.43;97423.27;108701;1252;99801;-74
2023/04/30 10:55:54;;;;;;;18.30;12.40;;;;;;;11.95;69.24;97422.54;108804;1252;95871;-75
2023/04/30 10:58:29;;;;;;;16.70;11.40;;;;;;;12.01;68.85;97417.23;108741;1253;96668;-74
2023/04/30 11:01:16;;;;;;;17.80;13.60;;;;;;;12.38;69.31;97412.20;108751;1252;103051;-73
2023/04/30 11:04:04;;;;;;;15.00;11.20;;;;;;;12.80;68.72;97406.55;108717;1253;100426;-74
2023/04/30 11:07:10;;;;;;;14.20;12.20;;;;;;;12.81;67.71;97403.34;108658;1253;99907;-74
2023/04/30 11:09:40;;;;;;;18.30;11.30;;;;;;;12.80;67.83;97400.95;108076;1261;95901;-76
2023/04/30 11:12:27;;;;;;;17.80;11.90;;;;;;;12.90;67.96;97402.59;108065;1261;96143;-74
2023/04/30 11:15:05;;;;;;;16.30;12.40;;;;;;;13.01;67.75;97402.86;108052;1261;103723;-73
2023/04/30 11:17:33;;;;;;;19.90;13.30;;;;;;;13.10;67.24;97403.98;108080;1262;101369;-77